Latest Weather Observations for Green Cape

IDN60801

Issued at 12:05 pm EST Thursday 2 October 2014 (issued every 30 minutes, with the page automatically refreshed every 10 minutes)

About weather observations | Map of weather stations | Latest weather observations for NSW | Other Formats
Station Details ID: 069137 Name: GREEN CAPE AWS Lat: -37.26 Lon: 150.05 Height: 19.4 m
Data from the previous 72 hours. | See also: Recent months at Green Cape
Date/Time
EST
Temp
°C
App
Temp
°C
Dew
Point
Rel
Hum
%
Delta-T
°C
Wind Press
QNH
hPa
Press
MSL
hPa
Rain
since 9 am
mm
Dir
 
Spd
km/h
Gust
km/h
Spd
kts
Gust
kts
02/11:00am 16.1 8.4 7.3 56 4.4 W 37 54 20 29 1019.1 1019.1 0.0
02/10:30am 16.0 7.6 7.5 57 4.2 WSW 41 59 22 32 1019.4 1019.4 0.0
02/10:00am 15.7 7.3 7.5 58 4.1 WSW 41 56 22 30 1019.7 1019.7 0.0
02/09:51am 15.4 7.5 6.4 55 4.4 WSW 37 56 20 30 1019.6 1019.6 0.0
02/09:30am 15.4 6.4 7.2 58 4.0 WSW 44 56 24 30 1019.6 1019.6 0.0
02/09:17am 15.3 8.5 7.1 58 4.0 WSW 32 52 17 28 1019.8 1019.8 0.0
02/09:00am 15.1 7.8 7.2 59 3.9 W 35 46 19 25 1019.9 1019.9 0.2
02/08:50am 14.8 6.7 6.9 59 3.9 W 39 46 21 25 1019.9 1019.9 0.2
02/08:30am 14.3 9.8 6.2 58 3.9 WSW 19 28 10 15 1020.0 1020.0 0.2
02/08:00am 13.7 9.9 5.6 58 3.8 W 15 22 8 12 1020.2 1020.2 0.2
02/07:30am 13.1 10.7 5.3 59 3.6 NW 7 15 4 8 1020.1 1020.1 0.2
02/07:00am 12.5 8.9 5.2 61 3.4 WNW 13 19 7 10 1020.2 1020.2 0.2
02/06:30am 11.9 6.7 5.3 64 3.0 W 22 28 12 15 1020.2 1020.2 0.2
02/06:00am 11.5 6.3 5.6 67 2.7 W 22 26 12 14 1020.4 1020.4 0.2
02/05:30am 11.3 6.7 5.4 67 2.7 W 19 24 10 13 1020.2 1020.2 0.2
02/05:00am 11.3 6.7 5.4 67 2.7 W 19 28 10 15 1020.0 1020.0 0.2
02/04:30am 11.4 6.2 5.7 68 2.6 W 22 28 12 15 1019.9 1019.9 0.2
02/04:00am 11.5 5.6 5.8 68 2.6 W 26 39 14 21 1020.0 1020.0 0.2
02/03:30am 11.8 5.9 5.7 66 2.8 W 26 33 14 18 1020.1 1020.1 0.2
02/03:00am 12.1 6.3 6.2 67 2.8 WSW 26 33 14 18 1020.5 1020.5 0.2
02/02:30am 11.8 6.2 5.4 65 3.0 W 24 35 13 19 1020.6 1020.6 0.2
02/02:00am 11.7 5.6 4.7 62 3.2 W 26 33 14 18 1020.7 1020.7 0.2
02/01:30am 11.9 4.7 5.1 63 3.1 W 32 39 17 21 1020.7 1020.7 0.2
02/01:00am 12.0 4.7 5.6 65 3.0 W 33 43 18 23 1021.1 1021.1 0.2
02/12:30am 11.8 6.3 5.7 66 2.8 W 24 30 13 16 1021.3 1021.3 0.2
02/12:00am 12.0 5.3 5.6 65 3.0 WSW 30 35 16 19 1021.5 1021.5 0.2
 
Date/Time
EST
Temp
°C
App
Temp
°C
Dew
Point
Rel
Hum
%
Delta-T
°C
Wind Press
QNH
hPa
Press
MSL
hPa
Rain
since 9 am
mm
Dir
 
Spd
km/h
Gust
km/h
Spd
kts
Gust
kts
01/11:30pm 12.1 5.9 6.2 67 2.8 WSW 28 35 15 19 1021.8 1021.8 0.2
01/11:00pm 11.6 5.9 6.7 72 2.3 W 26 30 14 16 1021.9 1021.9 0.2
01/10:30pm 11.5 6.2 7.0 74 2.1 WSW 24 33 13 18 1022.3 1022.3 0.2
01/10:00pm 11.9 5.2 7.2 73 2.3 WSW 32 37 17 20 1022.4 1022.4 0.2
01/09:30pm 11.9 7.9 6.8 71 2.4 W 17 22 9 12 1022.5 1022.5 0.2
01/09:00pm 11.8 7.3 6.3 69 2.6 W 19 22 10 12 1022.3 1022.3 0.2
01/08:30pm 12.0 7.4 6.3 68 2.7 W 20 30 11 16 1022.3 1022.3 0.2
01/08:00pm 12.1 7.4 6.2 67 2.8 W 20 28 11 15 1022.1 1022.1 0.2
01/07:30pm 12.4 7.3 6.0 65 3.0 WSW 22 26 12 14 1021.8 1021.8 0.2
01/07:00pm 12.6 6.7 5.8 63 3.2 SW 26 35 14 19 1021.4 1021.4 0.2
01/06:30pm 12.7 6.4 5.6 62 3.3 SW 28 33 15 18 1020.9 1020.9 0.2
01/06:00pm 12.8 5.5 5.5 61 3.4 SW 33 39 18 21 1020.6 1020.6 0.2
01/05:30pm 13.1 4.6 5.0 58 3.8 SW 39 46 21 25 1020.5 1020.5 0.2
01/05:00pm 13.6 3.5 5.5 58 3.8 SW 48 61 26 33 1020.0 1020.0 0.2
01/04:43pm 13.8 4.6 5.4 57 3.9 SW 43 63 23 34 1019.7 1019.7 0.2
01/04:30pm 13.9 5.0 5.0 55 4.1 SW 41 50 22 27 1019.6 1019.6 0.2
01/04:09pm 14.1 4.4 6.0 58 3.9 SW 46 65 25 35 1019.3 1019.3 0.2
01/04:00pm 14.0 3.0 4.9 54 4.2 SW 52 65 28 35 1019.0 1019.0 0.2
01/03:30pm 14.1 5.2 5.2 55 4.2 SW 41 52 22 28 1019.4 1019.4 0.2
01/03:06pm 14.1 3.1 4.9 54 4.3 SW 52 72 28 39 1018.5 1018.5 0.2
01/03:00pm 14.4 3.9 3.8 49 4.8 SW 48 56 26 30 1018.7 1018.7 0.2
01/02:30pm 14.3 3.2 4.6 52 4.5 SW 52 70 28 38 1018.1 1018.1 0.2
01/02:04pm 14.2 4.6 6.1 58 3.9 SW 46 65 25 35 1018.2 1018.2 0.2
01/02:00pm 13.9 4.7 6.3 60 3.6 SW 44 54 24 29 1018.2 1018.2 0.2
01/01:43pm 13.9 4.6 6.0 59 3.8 SW 44 70 24 38 1018.1 1018.1 0.2
01/01:30pm 14.2 5.6 6.3 59 3.8 WSW 41 52 22 28 1018.5 1018.5 0.2
01/01:04pm 14.1 2.2 5.2 55 4.2 SW 57 76 31 41 1018.1 1018.1 0.2
01/01:00pm 13.9 1.1 4.8 54 4.2 SW 61 76 33 41 1017.9 1017.9 0.2
01/12:36pm 13.9 4.1 5.5 57 4.0 WSW 46 70 25 38 1018.1 1018.1 0.2
01/12:30pm 13.7 4.2 5.1 56 4.0 SW 44 63 24 34 1018.3 1018.3 0.2
01/12:00pm 13.0 1.7 5.2 59 3.6 SW 54 80 29 43 1017.9 1017.9 0.2
01/11:39am 12.6 1.5 6.2 65 3.0 WSW 54 74 29 40 1018.0 1018.0 0.2
01/11:30am 12.4 2.1 6.5 67 2.8 WSW 50 63 27 34 1018.0 1018.0 0.2
01/11:18am 11.6 2.6 7.1 74 2.2 WSW 44 50 24 27 1018.2 1018.2 0.2
01/11:07am 10.4 -3.2 6.0 74 2.0 SW 67 85 36 46 1018.1 1018.1 0.2
01/11:00am 11.0 -3.7 5.3 68 2.6 SW 72 85 39 46 1017.5 1017.5 0.2
01/10:52am 12.3 2.9 7.2 71 2.5 SW 46 65 25 35 1017.9 1017.9 0.0
01/10:30am 10.8 -0.1 5.3 69 2.5 SW 52 63 28 34 1017.7 1017.7 0.0
01/10:00am 12.2 -0.6 4.7 60 3.4 WSW 61 80 33 43 1017.2 1017.2 0.0
01/09:59am 12.3 -0.4 5.2 62 3.3 WSW 61 80 33 43 1017.2 1017.2 0.0
01/09:30am 11.9 -1.6 4.9 62 3.2 WSW 65 78 35 42 1016.6 1016.6 0.0
01/09:00am 11.2 -1.0 5.5 68 2.6 WSW 59 78 32 42 1016.4 1016.4 1.6
01/08:40am 11.4 -1.0 4.8 64 3.0 WSW 59 83 32 45 1016.0 1016.0 1.6
01/08:30am 10.8 -2.8 4.5 65 2.8 WSW 65 78 35 42 1015.8 1015.8 1.6
01/08:08am 10.5 -3.0 4.9 68 2.5 WSW 65 85 35 46 1015.1 1015.1 1.6
01/08:00am 10.5 -3.4 4.9 68 2.5 WSW 67 83 36 45 1015.0 1015.0 1.6
01/07:30am 10.2 -3.9 5.6 73 2.1 WSW 69 91 37 49 1014.5 1014.5 1.6
01/07:22am 9.7 -3.0 4.9 72 2.2 W 61 82 33 44 1014.3 1014.3 1.6
01/07:00am 9.5 -1.7 5.7 77 1.7 WSW 54 69 29 37 1014.4 1014.4 1.6
01/06:33am 8.3 -2.1 4.3 76 1.7 W 48 69 26 37 1014.7 1014.7 1.6
01/06:30am 8.5 -2.6 4.7 77 1.7 W 52 69 28 37 1014.6 1014.6 1.6
01/06:02am 10.2 -1.7 4.1 66 2.7 WSW 56 78 30 42 1014.3 1014.3 1.6
01/06:00am 10.5 -1.1 4.0 64 2.9 WSW 54 72 29 39 1014.4 1014.4 1.6
01/05:45am 10.4 -0.6 3.0 60 3.2 WSW 50 70 27 38 1013.6 1013.6 1.6
01/05:30am 10.7 -0.5 4.0 63 3.0 WSW 52 69 28 37 1013.0 1013.0 1.6
01/05:00am 10.6 0.1 3.6 62 3.1 W 48 59 26 32 1012.0 1012.0 1.6
01/04:38am 10.7 -1.3 3.7 62 3.1 W 56 78 30 42 1011.1 1011.1 1.6
01/04:30am 10.8 -1.4 3.8 62 3.1 WSW 57 76 31 41 1011.0 1011.0 1.6
01/04:00am 10.8 -2.2 3.4 60 3.2 W 61 83 33 45 1010.3 1010.3 1.6
01/03:41am 11.0 -1.1 4.0 62 3.1 W 57 78 31 42 1010.0 1010.0 1.6
01/03:30am 10.9 -0.7 3.9 62 3.1 W 54 70 29 38 1010.2 1010.2 1.6
01/03:00am 11.2 0.1 4.4 63 3.1 W 52 70 28 38 1010.2 1010.2 1.6
01/02:36am 11.0 -1.1 4.2 63 3.0 WSW 57 78 31 42 1010.0 1010.0 1.6
01/02:30am 10.9 -1.5 4.4 64 2.9 WSW 59 74 32 40 1009.8 1009.8 1.6
01/02:07am 10.8 0.2 4.9 67 2.7 W 50 74 27 40 1009.8 1009.8 1.6
01/02:00am 11.2 0.3 5.5 68 2.6 W 52 63 28 34 1009.8 1009.8 1.6
01/01:39am 11.1 1.3 5.2 67 2.7 WSW 46 67 25 36 1010.0 1010.0 1.6
01/01:30am 11.0 0.3 4.7 65 2.8 WSW 50 67 27 36 1009.9 1009.9 1.6
01/01:00am 11.2 -0.1 5.3 67 2.7 WSW 54 65 29 35 1009.3 1009.3 1.6
01/12:30am 10.8 1.6 6.4 74 2.1 WSW 44 52 24 28 1009.2 1009.2 1.6
01/12:00am 10.7 1.2 6.6 76 1.9 WSW 46 61 25 33 1009.3 1009.3 1.6
 
Date/Time
EST
Temp
°C
App
Temp
°C
Dew
Point
Rel
Hum
%
Delta-T
°C
Wind Press
QNH
hPa
Press
MSL
hPa
Rain
since 9 am
mm
Dir
 
Spd
km/h
Gust
km/h
Spd
kts
Gust
kts
30/11:30pm 9.4 -1.5 7.2 86 1.0 WSW 54 65 29 35 1009.8 1009.8 1.6
30/11:00pm 9.3 -3.8 6.7 84 1.2 WSW 65 89 35 48 1009.9 1009.9 0.4
30/10:47pm 9.7 -2.2 7.0 83 1.3 WSW 59 80 32 43 1009.6 1009.6 0.0
30/10:30pm 10.2 -1.5 6.2 76 1.9 WSW 57 74 31 40 1009.5 1009.5 0.0
30/10:04pm 11.8 -1.4 6.1 68 2.7 WSW 65 87 35 47 1008.8 1008.8 0.0
30/10:00pm 12.0 -0.4 6.3 68 2.7 WSW 61 74 33 40 1008.8 1008.8 0.0
30/09:30pm 12.7 0.5 7.2 69 2.7 SW 61 82 33 44 1008.9 1008.9 0.0
30/09:00pm 13.2 2.3 7.2 67 2.9 SW 54 74 29 40 1008.4 1008.4 0.0
30/08:42pm 13.6 2.4 8.4 71 2.6 SW 57 80 31 43 1008.7 1008.7 0.0
30/08:30pm 14.3 2.4 8.7 69 2.8 SW 61 70 33 38 1007.6 1007.6 0.0
30/08:29pm 14.4 2.9 8.8 69 2.8 SW 59 70 32 38 1007.5 1007.5 0.0
30/08:09pm 15.9 0.6 9.6 66 3.3 SW 80 98 43 53 1006.1 1006.1 0.0
30/08:02pm 18.0 2.2 8.8 55 4.8 WSW 82 95 44 51 1004.8 1004.8 0.0
30/08:01pm 20.2 13.8 8.5 47 6.1 W 32 95 17 51 1005.1 1005.1 0.0
30/08:00pm 21.6 16.3 8.5 43 6.9 W 26 61 14 33 1005.2 1005.2 0.0
30/07:30pm 22.4 18.1 3.0 28 9.3 NNW 15 22 8 12 1003.7 1003.7 0.0
30/07:00pm 23.1 17.9 2.6 26 9.8 NW 19 30 10 16 1003.2 1003.2 0.0
30/06:30pm 23.8 16.4 2.0 24 10.3 NW 30 57 16 31 1003.3 1003.3 0.0
30/06:16pm 24.1 17.2 2.3 24 10.4 NW 28 50 15 27 1003.0 1003.0 0.0
30/06:00pm 23.3 18.6 3.3 27 9.7 NW 17 26 9 14 1002.6 1002.6 0.0
30/05:30pm 23.5 19.0 5.9 32 8.9 NW 19 28 10 15 1002.1 1002.1 0.0
30/05:00pm 18.4 16.3 14.7 79 2.2 NNE 19 22 10 12 1002.0 1002.0 0.0
30/04:30pm 18.3 15.2 14.4 78 2.2 NNE 24 30 13 16 1001.9 1001.9 0.0
30/04:00pm 18.4 15.2 14.3 77 2.4 NNE 24 30 13 16 1002.1 1002.1 0.0
30/03:30pm 18.9 16.5 15.4 80 2.1 N 22 28 12 15 1002.4 1002.4 0.0
30/03:00pm 18.5 15.6 15.0 80 2.1 N 24 28 13 15 1002.6 1002.6 0.0
30/02:30pm 18.6 15.4 15.3 81 1.9 N 26 30 14 16 1003.2 1003.2 0.0
30/02:00pm 18.4 15.1 15.1 81 1.9 N 26 30 14 16 1004.2 1004.2 0.0
30/01:30pm 18.4 13.9 14.9 80 2.0 N 32 35 17 19 1004.7 1004.7 0.0
30/01:00pm 18.3 14.5 14.6 79 2.1 N 28 32 15 17 1005.1 1005.1 0.0
30/12:30pm 18.7 16.0 14.6 77 2.4 N 22 26 12 14 1006.0 1006.0 0.0
30/12:00pm 18.8 16.0 14.3 75 2.6 N 22 24 12 13 1006.6 1006.6 0.0
30/11:30am 18.9 16.4 14.0 73 2.8 N 20 22 11 12 1007.2 1007.2 0.0
30/11:00am 18.7 16.2 13.6 72 2.9 N 19 20 10 11 1007.8 1007.8 0.0
30/10:30am 18.4 15.9 13.5 73 2.8 N 19 20 10 11 1008.5 1008.5 0.0
30/10:00am 18.3 16.1 13.2 72 2.9 N 17 19 9 10 1009.1 1009.1 0.0
30/09:30am 18.2 16.4 13.3 73 2.8 N 15 17 8 9 1009.6 1009.6 0.0
30/09:00am 17.6 16.4 12.9 74 2.6 NNE 11 13 6 7 1009.8 1009.8 0.0
30/08:30am 16.6 17.3 13.5 82 1.7 NNE 2 4 1 2 1010.0 1010.0 0.0
30/08:00am 13.4 12.1 11.1 86 1.2 W 9 11 5 6 1010.3 1010.3 0.0
30/07:30am 12.4 10.1 10.3 87 1.1 W 13 15 7 8 1010.5 1010.5 0.0
30/07:00am 11.9 9.5 10.1 89 0.9 WNW 13 17 7 9 1010.8 1010.8 0.0
30/06:30am 13.1 12.4 11.5 90 0.8 W 6 11 3 6 1010.9 1010.9 0.0
30/06:00am 12.8 11.5 11.2 90 0.8 NNW 9 11 5 6 1010.7 1010.7 0.0
30/05:30am 12.3 10.8 10.5 89 0.9 NW 9 11 5 6 1010.7 1010.7 0.0
30/05:00am 13.0 11.3 11.2 89 1.0 N 11 13 6 7 1010.6 1010.6 0.0
30/04:30am 12.0 10.4 10.2 89 0.9 W 9 11 5 6 1010.9 1010.9 0.0
30/04:00am 12.7 11.6 10.8 88 1.0 W 7 11 4 6 1011.1 1011.1 0.0
30/03:30am 12.9 11.6 11.1 89 0.9 NNW 9 15 5 8 1010.9 1010.9 0.0
30/03:00am 13.3 11.0 11.7 90 0.9 N 15 19 8 10 1010.9 1010.9 0.0
30/02:30am 13.4 11.1 11.8 90 0.9 N 15 19 8 10 1011.1 1011.1 0.0
30/02:00am 13.7 11.6 12.3 91 0.8 N 15 17 8 9 1011.4 1011.4 0.0
30/01:30am 13.9 12.2 12.5 91 0.8 N 13 17 7 9 1011.7 1011.7 0.0
30/01:00am 14.5 12.2 13.0 91 0.8 N 17 22 9 12 1012.2 1012.2 0.0
30/12:30am 15.2 11.4 13.6 90 0.9 N 26 30 14 16 1012.4 1012.4 0.0
30/12:00am 15.1 12.0 13.5 90 0.9 NNE 22 24 12 13 1012.9 1012.9 0.0
 
Date/Time
EST
Temp
°C
App
Temp
°C
Dew
Point
Rel
Hum
%
Delta-T
°C
Wind Press
QNH
hPa
Press
MSL
hPa
Rain
since 9 am
mm
Dir
 
Spd
km/h
Gust
km/h
Spd
kts
Gust
kts
29/11:30pm 15.2 12.5 13.4 89 1.0 N 20 22 11 12 1013.4 1013.4 0.0
29/11:00pm 15.3 12.5 13.3 88 1.1 N 20 24 11 13 1013.7 1013.7 0.0
29/10:30pm 15.4 12.2 13.2 87 1.2 N 22 26 12 14 1014.0 1014.0 0.0
29/10:00pm 15.5 11.9 13.2 86 1.3 N 24 28 13 15 1014.2 1014.2 0.0
29/09:30pm 15.6 11.6 13.1 85 1.4 NNE 26 30 14 16 1014.2 1014.2 0.0
29/09:00pm 15.7 11.7 13.0 84 1.5 NNE 26 30 14 16 1014.4 1014.4 0.0
29/08:30pm 15.7 12.0 12.8 83 1.6 NNE 24 28 13 15 1014.7 1014.7 0.0
29/08:00pm 15.6 12.2 12.5 82 1.7 NNE 22 26 12 14 1014.8 1014.8 0.0
29/07:30pm 15.6 12.2 12.4 81 1.8 NNE 22 26 12 14 1014.7 1014.7 0.0
29/07:00pm 15.6 12.5 12.2 80 1.9 NNE 20 24 11 13 1014.5 1014.5 0.0
29/06:30pm 15.6 12.6 11.8 78 2.1 NNE 19 22 10 12 1014.3 1014.3 0.0
29/06:00pm 15.8 13.0 11.4 75 2.4 NNE 17 19 9 10 1014.0 1014.0 0.0
29/05:30pm 16.4 14.1 11.6 73 2.6 NE 15 19 8 10 1013.6 1013.6 0.0
29/05:00pm 16.7 15.4 11.4 71 2.9 ENE 9 11 5 6 1013.5 1013.5 0.0
29/04:30pm 17.3 15.2 11.3 68 3.3 SE 13 17 7 9 1013.2 1013.2 0.0
29/04:00pm 17.4 13.9 11.0 66 3.5 SSE 20 24 11 13 1012.9 1012.9 0.0
29/03:30pm 17.7 13.4 10.8 64 3.7 SSE 24 28 13 15 1012.7 1012.7 0.0
29/03:00pm 17.9 12.6 11.2 65 3.6 S 30 39 16 21 1012.3 1012.3 0.0
29/02:30pm 18.0 11.9 11.8 67 3.4 S 35 41 19 22 1012.1 1012.1 0.0
29/02:00pm 18.1 11.1 11.4 65 3.7 S 39 44 21 24 1012.0 1012.0 0.0
29/01:30pm 18.0 11.3 10.9 63 3.8 S 37 50 20 27 1012.2 1012.2 0.0
29/01:00pm 17.6 9.5 10.9 65 3.6 S 44 54 24 29 1011.8 1011.8 0.0
29/12:30pm 18.4 10.8 11.7 65 3.7 S 43 48 23 26 1011.8 1011.8 0.0

Other Formats:

Comma delimited format used in spreadsheet applications
http://www.bom.gov.au/fwo/IDN60801/IDN60801.94934.axf

JavaScript Object Notation format (JSON) in row-major order
http://www.bom.gov.au/fwo/IDN60801/IDN60801.94934.json